createdAt,value
2018-11-13T00:00:52.237Z,3.60
2018-11-13T00:03:21.538Z,4.23
2018-11-13T00:05:52.853Z,3.57
2018-11-13T00:08:23.595Z,3.20
2018-11-13T00:10:53.182Z,3.63
2018-11-13T00:13:23.080Z,3.87
2018-11-13T00:15:54.307Z,3.20
2018-11-13T00:18:23.576Z,3.47
2018-11-13T00:20:52.871Z,4.73
2018-11-13T00:23:23.837Z,3.57
2018-11-13T00:25:54.175Z,3.47
2018-11-13T00:28:24.430Z,3.83
2018-11-13T00:30:53.945Z,3.97
2018-11-13T00:33:26.346Z,3.87
2018-11-13T00:35:56.699Z,3.10
2018-11-13T00:38:27.052Z,4.13
2018-11-13T00:40:57.702Z,4.00
2018-11-13T00:43:28.893Z,3.30
2018-11-13T00:45:58.181Z,3.57
2018-11-13T00:48:28.707Z,4.73
2018-11-13T00:50:58.344Z,5.37
2018-11-13T00:53:27.645Z,4.57
2018-11-13T00:55:57.549Z,4.43
2018-11-13T00:58:26.938Z,4.30
2018-11-13T01:00:57.453Z,4.40
2018-11-13T01:03:27.604Z,4.60
2018-11-13T01:05:57.428Z,3.93
2018-11-13T01:08:27.743Z,3.83
2018-11-13T01:10:57.167Z,3.73
2018-11-13T01:13:26.704Z,3.60
2018-11-13T01:15:56.004Z,4.27
2018-11-13T01:18:27.474Z,3.90
2018-11-13T01:20:57.391Z,3.40
2018-11-13T01:23:27.751Z,4.00
2018-11-13T01:25:57.255Z,3.90
2018-11-13T01:28:27.808Z,3.93
2018-11-13T01:30:58.029Z,3.90
2018-11-13T01:33:28.626Z,3.53
2018-11-13T01:35:58.739Z,3.97
2018-11-13T01:38:29.748Z,3.85
2018-11-13T01:40:59.559Z,3.67
2018-11-13T01:43:29.571Z,3.63
2018-11-13T01:45:59.083Z,3.83
2018-11-13T01:48:28.911Z,3.43
2018-11-13T01:51:02.479Z,3.57
2018-11-13T01:53:34.210Z,3.27
2018-11-13T01:56:04.638Z,2.90
2018-11-13T01:58:34.571Z,3.60
2018-11-13T02:01:04.150Z,3.50
2018-11-13T02:03:35.693Z,3.10
2018-11-13T02:06:05.241Z,3.10
2018-11-13T02:08:35.713Z,2.83
2018-11-13T02:11:05.329Z,3.60
2018-11-13T02:13:35.458Z,3.60
2018-11-13T02:16:05.872Z,3.17
2018-11-13T02:18:37.149Z,3.40
2018-11-13T02:21:08.952Z,2.93
2018-11-13T02:23:38.489Z,3.27
2018-11-13T02:26:08.813Z,3.43
2018-11-13T02:28:38.713Z,3.00
2018-11-13T02:31:07.934Z,3.50
2018-11-13T02:33:38.155Z,3.63
2018-11-13T02:36:08.667Z,3.30
2018-11-13T02:38:39.813Z,3.20
2018-11-13T02:41:14.193Z,3.50
2018-11-13T02:43:48.154Z,3.23
2018-11-13T02:46:19.158Z,3.10
2018-11-13T02:48:52.675Z,3.47
2018-11-13T02:51:22.215Z,3.30
2018-11-13T02:53:51.475Z,4.00
2018-11-13T02:56:22.914Z,4.53
2018-11-13T02:58:54.058Z,3.87
2018-11-13T03:01:23.515Z,3.33
2018-11-13T03:03:54.112Z,3.80
2018-11-13T03:06:25.127Z,3.77
2018-11-13T03:08:55.016Z,3.70
2018-11-13T03:11:25.902Z,3.83
2018-11-13T03:13:59.906Z,3.20
2018-11-13T03:16:30.811Z,3.30
2018-11-13T03:19:00.170Z,3.57
2018-11-13T03:21:29.407Z,3.47
2018-11-13T03:23:58.972Z,3.70
2018-11-13T03:26:28.414Z,3.93
2018-11-13T03:28:58.787Z,4.13
2018-11-13T03:31:28.390Z,3.40
2018-11-13T03:33:59.475Z,3.60
2018-11-13T03:36:30.523Z,3.87
2018-11-13T03:39:00.891Z,3.63
2018-11-13T03:41:31.343Z,4.23
2018-11-13T03:44:02.396Z,3.67
2018-11-13T03:46:31.748Z,4.13
2018-11-13T03:49:02.898Z,3.80
2018-11-13T03:51:34.009Z,3.23
2018-11-13T03:54:03.888Z,3.60
2018-11-13T03:56:33.365Z,3.60
2018-11-13T03:59:04.648Z,3.20
2018-11-13T04:01:33.982Z,3.73
2018-11-13T04:04:08.823Z,3.17
2018-11-13T04:06:39.336Z,3.40
2018-11-13T04:09:11.602Z,2.97
2018-11-13T04:11:42.326Z,3.40
2018-11-13T04:14:12.862Z,3.20
2018-11-13T04:16:42.369Z,3.20
2018-11-13T04:19:12.952Z,3.03
2018-11-13T04:21:43.369Z,3.43
2018-11-13T04:24:14.075Z,3.43
2018-11-13T04:26:45.691Z,2.97
2018-11-13T04:29:15.824Z,3.30
2018-11-13T04:31:47.261Z,3.70
2018-11-13T04:34:17.278Z,3.17
2018-11-13T04:36:47.844Z,3.40
2018-11-13T04:39:18.353Z,3.77
2018-11-13T04:41:48.985Z,3.47
2018-11-13T04:44:18.326Z,4.13
2018-11-13T04:46:49.919Z,3.50
2018-11-13T04:49:21.360Z,3.33
2018-11-13T04:51:51.673Z,3.20
2018-11-13T04:54:21.744Z,3.47
2018-11-13T04:56:54.345Z,3.33
2018-11-13T04:59:24.106Z,3.80
2018-11-13T05:01:55.641Z,3.23
2018-11-13T05:04:26.422Z,3.43
2018-11-13T05:06:57.750Z,3.87
2018-11-13T05:09:27.928Z,4.67
2018-11-13T05:11:57.580Z,3.50
2018-11-13T05:14:28.021Z,3.53
2018-11-13T05:16:57.464Z,4.00
2018-11-13T05:19:27.570Z,4.33
2018-11-13T05:22:01.956Z,3.80
2018-11-13T05:24:31.889Z,4.13
2018-11-13T05:27:02.363Z,3.33
2018-11-13T05:29:33.472Z,4.10
2018-11-13T05:32:03.006Z,3.27
2018-11-13T05:34:37.960Z,3.67
2018-11-13T05:37:08.318Z,4.07
2018-11-13T05:39:37.841Z,3.53
2018-11-13T05:42:08.701Z,3.63
2018-11-13T05:44:39.705Z,3.53
2018-11-13T05:47:10.148Z,3.80
2018-11-13T05:49:39.480Z,4.70
2018-11-13T05:52:09.276Z,3.70
2018-11-13T05:54:39.656Z,4.27
2018-11-13T05:57:10.385Z,3.87
2018-11-13T05:59:40.809Z,4.17
2018-11-13T06:02:12.417Z,4.43
2018-11-13T06:04:42.868Z,4.17
2018-11-13T06:07:15.074Z,4.70
2018-11-13T06:09:45.242Z,3.97
2018-11-13T06:12:16.401Z,3.63
2018-11-13T06:14:46.294Z,3.90
2018-11-13T06:17:19.581Z,4.23
2018-11-13T06:19:49.699Z,4.30
2018-11-13T06:22:19.176Z,4.20
2018-11-13T06:24:49.403Z,3.60
2018-11-13T06:27:26.163Z,4.53
2018-11-13T06:29:56.063Z,4.10
2018-11-13T06:32:25.509Z,4.60
2018-11-13T06:34:56.690Z,3.47
2018-11-13T06:37:28.800Z,3.47
2018-11-13T06:40:00.481Z,3.30
2018-11-13T06:42:29.906Z,3.90
2018-11-13T06:44:59.341Z,3.90
2018-11-13T06:47:29.979Z,4.28
2018-11-13T06:50:00.296Z,3.80
2018-11-13T06:52:30.227Z,4.07
2018-11-13T06:55:05.127Z,3.40
2018-11-13T06:57:35.768Z,4.33
2018-11-13T07:06:53.136Z,4.00
2018-11-13T07:09:22.162Z,3.53
2018-11-13T07:11:51.231Z,4.13
2018-11-13T07:14:20.259Z,5.40
2018-11-13T07:16:49.147Z,3.97
2018-11-13T07:19:18.122Z,3.97
2018-11-13T07:21:47.220Z,4.23
2018-11-13T07:24:18.870Z,3.83
2018-11-13T07:26:47.862Z,3.40
2018-11-13T07:29:16.898Z,3.77
2018-11-13T07:31:45.846Z,3.57
2018-11-13T07:34:14.921Z,3.30
2018-11-13T07:36:43.888Z,3.57
2018-11-13T07:39:12.791Z,4.73
2018-11-13T07:41:43.156Z,4.20
2018-11-13T07:44:12.219Z,4.20
2018-11-13T07:46:41.237Z,3.00
2018-11-13T07:49:10.306Z,3.43
2018-11-13T07:51:39.319Z,3.33
2018-11-13T07:54:08.351Z,3.30
2018-11-13T07:56:38.851Z,3.87
2018-11-13T07:59:07.991Z,3.70
2018-11-13T08:01:36.996Z,3.03
2018-11-13T08:04:06.388Z,3.60
2018-11-13T08:06:35.393Z,3.13
2018-11-13T08:09:04.844Z,3.17
2018-11-13T08:11:33.924Z,3.50
2018-11-13T08:14:02.864Z,3.60
2018-11-13T08:16:31.963Z,3.50
2018-11-13T08:19:00.940Z,3.20
2018-11-13T08:21:29.956Z,3.97
2018-11-13T08:23:58.995Z,4.87
2018-11-13T08:26:27.985Z,3.87
2018-11-13T08:28:57.071Z,3.33
2018-11-13T08:31:26.104Z,3.90
2018-11-13T08:33:55.169Z,4.50
2018-11-13T08:36:24.260Z,3.70
2018-11-13T08:38:53.278Z,3.70
2018-11-13T08:41:22.272Z,3.97
2018-11-13T08:43:51.255Z,4.67
2018-11-13T08:46:20.270Z,3.70
2018-11-13T08:48:49.308Z,3.67
2018-11-13T08:51:18.186Z,3.33
2018-11-13T08:53:47.183Z,3.03
2018-11-13T08:56:16.216Z,4.03
2018-11-13T08:58:45.203Z,3.77
2018-11-13T09:01:14.204Z,3.40
2018-11-13T09:03:43.107Z,3.50
2018-11-13T09:06:12.021Z,3.37
2018-11-13T09:08:42.332Z,3.30
2018-11-13T09:11:11.424Z,3.10
2018-11-13T09:13:40.457Z,3.90
2018-11-13T09:16:09.430Z,3.77
2018-11-13T09:18:38.429Z,3.40
2018-11-13T09:21:07.483Z,3.47
2018-11-13T09:23:36.477Z,3.53
2018-11-13T09:26:05.365Z,3.60
2018-11-13T09:28:34.298Z,3.67
2018-11-13T09:31:04.930Z,3.20
2018-11-13T09:33:33.816Z,3.90
2018-11-13T09:36:02.740Z,3.50
2018-11-13T09:38:31.827Z,3.40
2018-11-13T09:41:00.878Z,4.63
2018-11-13T09:43:31.281Z,3.97
2018-11-13T09:46:00.382Z,5.10
2018-11-13T09:48:29.437Z,4.03
2018-11-13T09:50:58.546Z,3.67
2018-11-13T09:53:27.553Z,3.37
2018-11-13T09:55:56.434Z,4.40
2018-11-13T09:58:25.371Z,3.17
2018-11-13T10:00:54.612Z,3.97
2018-11-13T10:03:24.094Z,3.83
2018-11-13T10:05:52.547Z,3.33
2018-11-13T10:08:21.632Z,3.60
2018-11-13T10:10:50.635Z,4.10
2018-11-13T10:13:19.653Z,3.30
2018-11-13T10:15:48.600Z,3.10
2018-11-13T10:18:17.671Z,3.63
2018-11-13T10:20:46.511Z,3.70
2018-11-13T10:23:15.349Z,3.03
2018-11-13T10:25:44.367Z,4.73
2018-11-13T10:28:13.391Z,3.80
2018-11-13T10:30:42.347Z,3.67
2018-11-13T10:33:11.370Z,3.50
2018-11-13T10:35:40.401Z,3.67
2018-11-13T10:38:09.291Z,3.47
2018-11-13T10:40:38.353Z,3.60
2018-11-13T10:43:07.415Z,3.60
2018-11-13T10:45:36.334Z,3.23
2018-11-13T10:48:05.307Z,3.80
2018-11-13T10:50:34.260Z,3.90
2018-11-13T10:53:03.273Z,3.57
2018-11-13T10:55:32.467Z,3.60
2018-11-13T10:58:01.416Z,3.13
2018-11-13T11:02:43.151Z,3.00
2018-11-13T11:05:12.074Z,3.40
2018-11-13T11:07:41.039Z,3.70
2018-11-13T11:10:10.060Z,3.20
2018-11-13T11:12:40.382Z,3.50
2018-11-13T11:15:10.141Z,3.83
2018-11-13T11:17:39.071Z,3.47
2018-11-13T11:20:10.131Z,3.00
2018-11-13T11:22:39.091Z,3.23
2018-11-13T11:25:09.701Z,2.93
2018-11-13T11:27:38.743Z,3.07
2018-11-13T11:30:11.022Z,3.20
2018-11-13T11:32:40.110Z,3.20
2018-11-13T11:35:09.231Z,3.50
2018-11-13T11:37:39.015Z,2.80
2018-11-13T11:40:08.160Z,3.17
2018-11-13T11:42:37.800Z,3.73
2018-11-13T11:45:08.845Z,2.93
2018-11-13T11:47:37.960Z,3.63
2018-11-13T11:50:07.888Z,2.80
2018-11-13T11:52:36.879Z,2.90
2018-11-13T11:55:05.883Z,3.20
2018-11-13T11:57:34.817Z,3.33
2018-11-13T12:00:03.988Z,2.73
2018-11-13T12:02:32.939Z,2.70
2018-11-13T12:05:01.983Z,2.63
2018-11-13T12:07:31.008Z,3.30
2018-11-13T12:09:59.967Z,2.73
2018-11-13T12:12:28.981Z,3.10
2018-11-13T12:14:59.137Z,3.10
2018-11-13T12:17:28.065Z,3.57
2018-11-13T12:19:57.055Z,2.73
2018-11-13T12:22:26.015Z,3.37
2018-11-13T12:24:55.197Z,3.50
2018-11-13T12:27:24.243Z,3.27
2018-11-13T12:29:53.435Z,3.20
2018-11-13T12:32:22.303Z,3.00
2018-11-13T12:34:51.203Z,3.33
2018-11-13T12:37:21.612Z,3.03
2018-11-13T12:39:50.552Z,3.00
2018-11-13T12:42:19.606Z,2.53
2018-11-13T12:44:49.803Z,3.00
2018-11-13T12:47:18.852Z,2.30
2018-11-13T12:49:47.876Z,2.77
2018-11-13T12:52:17.933Z,2.97
2018-11-13T12:54:48.983Z,3.07
2018-11-13T12:57:17.919Z,2.90
2018-11-13T12:59:48.358Z,3.20
2018-11-13T13:02:17.424Z,3.17
2018-11-13T13:04:46.433Z,3.60
2018-11-13T13:07:15.467Z,2.83
2018-11-13T13:09:44.560Z,2.73
2018-11-13T13:12:13.562Z,3.10
2018-11-13T13:14:42.600Z,2.77
2018-11-13T13:17:12.721Z,3.30
2018-11-13T13:19:41.824Z,3.27
2018-11-13T13:22:11.700Z,2.77
2018-11-13T13:24:40.667Z,2.53
2018-11-13T13:27:09.675Z,2.63
2018-11-13T13:29:38.575Z,2.70
2018-11-13T13:32:07.599Z,2.80
2018-11-13T13:34:36.613Z,3.53
2018-11-13T13:37:05.748Z,3.50
2018-11-13T13:39:34.780Z,3.27
2018-11-13T13:42:04.113Z,3.13
2018-11-13T13:44:33.146Z,3.60
2018-11-13T13:47:02.316Z,3.77
2018-11-13T13:49:31.364Z,4.00
2018-11-13T13:52:00.245Z,3.77
2018-11-13T13:54:29.256Z,4.17
2018-11-13T13:56:58.368Z,4.50
2018-11-13T13:59:27.459Z,4.10
2018-11-13T14:01:56.429Z,4.80
2018-11-13T14:04:25.481Z,4.73
2018-11-13T14:06:54.419Z,4.60
2018-11-13T14:09:23.519Z,4.93
2018-11-13T14:11:52.491Z,5.50
2018-11-13T14:14:21.400Z,7.80
2018-11-13T14:16:50.381Z,5.50
2018-11-13T14:19:19.359Z,5.73
2018-11-13T14:21:48.296Z,5.13
2018-11-13T14:24:17.335Z,5.10
2018-11-13T14:26:46.300Z,5.20
2018-11-13T14:29:15.270Z,4.60
2018-11-13T14:31:44.182Z,5.23
2018-11-13T14:34:14.390Z,5.00
2018-11-13T14:36:43.399Z,4.37
2018-11-13T14:39:12.735Z,4.90
2018-11-13T14:41:41.808Z,4.87
2018-11-13T14:44:10.791Z,5.07
2018-11-13T14:46:39.893Z,4.70
2018-11-13T14:49:09.282Z,5.70
2018-11-13T14:51:38.270Z,5.30
2018-11-13T14:54:07.212Z,5.50
2018-11-13T14:56:36.265Z,5.47
2018-11-13T14:59:05.391Z,5.10
2018-11-13T15:01:34.434Z,5.23
2018-11-13T15:04:03.488Z,5.70
2018-11-13T15:06:32.484Z,5.03
2018-11-13T15:09:01.468Z,5.90
2018-11-13T15:11:30.810Z,6.50
2018-11-13T15:13:59.815Z,6.67
2018-11-13T15:16:28.860Z,6.00
2018-11-13T15:18:57.776Z,5.63
2018-11-13T15:21:26.793Z,5.87
2018-11-13T15:23:55.747Z,6.20
2018-11-13T15:26:25.133Z,5.73
2018-11-13T15:28:54.191Z,6.47
2018-11-13T15:31:23.169Z,5.93
2018-11-13T15:33:52.181Z,6.87
2018-11-13T15:36:21.205Z,5.80
2018-11-13T15:38:50.137Z,7.37
2018-11-13T15:41:19.067Z,6.27
2018-11-13T15:43:48.008Z,5.43
2018-11-13T15:46:16.940Z,6.07
2018-11-13T15:48:45.935Z,5.80
2018-11-13T15:51:14.973Z,6.03
2018-11-13T15:53:45.136Z,5.00
2018-11-13T15:56:14.180Z,5.60
2018-11-13T15:58:43.146Z,5.00
2018-11-13T16:01:12.144Z,4.50
2018-11-13T16:03:41.150Z,4.70
2018-11-13T16:06:10.176Z,5.70
2018-11-13T16:08:40.323Z,4.60
2018-11-13T16:11:09.153Z,4.00
2018-11-13T16:13:39.711Z,5.20
2018-11-13T16:16:08.706Z,3.10
2018-11-13T16:18:37.691Z,3.73
2018-11-13T16:21:07.054Z,4.50
2018-11-13T16:23:35.948Z,3.47
2018-11-13T16:26:05.072Z,4.37
2018-11-13T16:28:35.287Z,3.73
2018-11-13T16:31:04.302Z,3.37
2018-11-13T16:33:33.331Z,4.20
2018-11-13T16:36:03.645Z,3.80
2018-11-13T16:38:32.645Z,4.83
2018-11-13T16:41:01.763Z,5.37
2018-11-13T16:43:32.123Z,5.73
2018-11-13T16:46:01.182Z,4.57
2018-11-13T16:48:30.154Z,5.03
2018-11-13T16:51:00.436Z,4.77
2018-11-13T16:53:29.487Z,5.33
2018-11-13T16:56:04.244Z,5.80
2018-11-13T16:58:33.277Z,6.37
2018-11-13T17:01:02.491Z,5.60
2018-11-13T17:03:31.452Z,11.23
2018-11-13T17:06:00.496Z,5.50
2018-11-13T17:08:29.406Z,5.60
2018-11-13T17:10:59.779Z,5.50
2018-11-13T17:13:28.760Z,5.83
2018-11-13T17:15:57.779Z,10.17
2018-11-13T17:18:27.223Z,5.43
2018-11-13T17:20:55.796Z,6.57
2018-11-13T17:23:24.804Z,5.50
2018-11-13T17:25:55.206Z,6.50
2018-11-13T17:28:24.193Z,7.47
2018-11-13T17:30:53.122Z,5.77
2018-11-13T17:33:22.164Z,6.43
2018-11-13T17:35:51.165Z,5.97
2018-11-13T17:38:20.194Z,5.53
2018-11-13T17:40:49.194Z,5.17
2018-11-13T17:43:20.633Z,6.00
2018-11-13T17:45:50.403Z,5.27
2018-11-13T17:48:19.432Z,5.37
2018-11-13T17:50:48.407Z,5.63
2018-11-13T17:53:17.492Z,5.00
2018-11-13T17:55:46.460Z,5.57
2018-11-13T17:58:15.988Z,5.60
2018-11-13T18:00:48.150Z,5.80
2018-11-13T18:03:17.940Z,5.43
2018-11-13T18:05:47.942Z,5.60
2018-11-13T18:08:16.929Z,5.57
2018-11-13T18:10:47.017Z,5.03
2018-11-13T18:13:16.229Z,5.28
2018-11-13T18:15:45.284Z,5.10
2018-11-13T18:18:14.323Z,4.50
2018-11-13T18:20:43.337Z,5.77
2018-11-13T18:23:12.409Z,5.07
2018-11-13T18:25:41.504Z,4.57
2018-11-13T18:28:10.510Z,4.67
2018-11-13T18:30:39.933Z,5.13
2018-11-13T18:33:09.298Z,4.73
2018-11-13T18:35:39.458Z,5.20
2018-11-13T18:38:10.106Z,4.70
2018-11-13T18:40:39.167Z,5.57
2018-11-13T18:43:08.539Z,5.43
2018-11-13T18:45:38.874Z,6.33
2018-11-13T18:48:07.794Z,5.50
2018-11-13T18:50:38.326Z,6.90
2018-11-13T18:53:07.380Z,7.47
2018-11-13T18:55:36.492Z,5.97
2018-11-13T18:58:05.612Z,6.63
2018-11-13T19:00:36.080Z,6.77
2018-11-13T19:03:06.138Z,5.97
2018-11-13T19:05:35.107Z,6.53
2018-11-13T19:08:04.268Z,5.77
2018-11-13T19:10:37.599Z,6.27
2018-11-13T19:13:08.626Z,5.57
2018-11-13T19:15:39.050Z,5.57
2018-11-13T19:18:08.740Z,5.73
2018-11-13T19:20:38.951Z,5.97
2018-11-13T19:23:08.103Z,5.97
2018-11-13T19:25:37.652Z,7.87
2018-11-13T19:28:08.279Z,7.03
2018-11-13T19:30:37.222Z,7.42
2018-11-13T19:33:06.353Z,6.50
2018-11-13T19:35:35.608Z,6.33
2018-11-13T19:38:04.395Z,6.13
2018-11-13T19:40:34.381Z,6.53
2018-11-13T19:43:04.730Z,7.60
2018-11-13T19:45:34.879Z,7.27
2018-11-13T19:48:03.868Z,6.80
2018-11-13T19:50:35.667Z,7.90
2018-11-13T19:53:04.884Z,5.37
2018-11-13T19:55:34.343Z,6.30
2018-11-13T19:58:03.526Z,6.83
2018-11-13T20:00:34.948Z,5.63
2018-11-13T20:03:06.745Z,6.17
2018-11-13T20:05:35.928Z,6.43
2018-11-13T20:08:05.163Z,5.20
2018-11-13T20:10:36.612Z,5.33
2018-11-13T20:13:08.648Z,5.60
2018-11-13T20:15:39.443Z,6.00
2018-11-13T20:18:08.478Z,6.10
2018-11-13T20:20:37.631Z,5.47
2018-11-13T20:23:09.444Z,5.50
2018-11-13T20:25:38.431Z,5.43
2018-11-13T20:28:07.406Z,5.37
2018-11-13T20:30:37.727Z,5.53
2018-11-13T20:33:06.920Z,6.17
2018-11-13T20:35:35.928Z,5.77
2018-11-13T20:38:05.156Z,5.70
2018-11-13T20:40:35.254Z,5.77
2018-11-13T20:43:05.997Z,5.47
2018-11-13T20:45:35.079Z,5.67
2018-11-13T20:48:04.143Z,5.43
2018-11-13T20:50:34.037Z,6.37
2018-11-13T20:53:03.127Z,6.10
2018-11-13T20:55:32.172Z,5.67
2018-11-13T20:58:01.323Z,5.83
2018-11-13T21:00:32.434Z,6.17
2018-11-13T21:03:01.331Z,5.90
2018-11-13T21:05:31.849Z,7.12
2018-11-13T21:08:00.738Z,6.13
2018-11-13T21:10:34.404Z,5.87
2018-11-13T21:13:03.732Z,6.40
2018-11-13T21:15:32.713Z,7.57
2018-11-13T21:18:02.350Z,7.53
2018-11-13T21:20:31.217Z,7.73
2018-11-13T21:23:00.224Z,6.80
2018-11-13T21:25:29.214Z,7.83
2018-11-13T21:28:00.036Z,7.63
2018-11-13T21:30:29.049Z,7.93
2018-11-13T21:32:58.079Z,7.57
2018-11-13T21:35:27.042Z,7.50
2018-11-13T21:37:57.040Z,6.40
2018-11-13T21:40:26.935Z,6.50
2018-11-13T21:42:56.484Z,6.80
2018-11-13T21:45:26.624Z,7.30
2018-11-13T21:47:55.615Z,8.28
2018-11-13T21:50:25.839Z,7.63
2018-11-13T21:52:54.937Z,7.30
2018-11-13T21:55:25.077Z,6.90
2018-11-13T21:57:54.089Z,6.93
2018-11-13T22:00:31.458Z,6.70
2018-11-13T22:03:01.936Z,6.57
2018-11-13T22:05:31.613Z,5.90
2018-11-13T22:08:00.641Z,7.93
2018-11-13T22:10:29.678Z,6.43
2018-11-13T22:12:58.602Z,6.13
2018-11-13T22:15:28.626Z,5.50
2018-11-13T22:17:57.548Z,5.47
2018-11-13T22:20:26.603Z,6.50
2018-11-13T22:22:56.933Z,7.30
2018-11-13T22:25:26.947Z,6.67
2018-11-13T22:27:57.034Z,6.40
2018-11-13T22:30:27.435Z,6.30
2018-11-13T22:32:56.447Z,6.37
2018-11-13T22:35:25.398Z,6.33
2018-11-13T22:37:54.473Z,6.50
2018-11-13T22:40:24.728Z,6.50
2018-11-13T22:42:53.703Z,6.30
2018-11-13T22:45:23.936Z,6.43
2018-11-13T22:47:53.245Z,7.70
2018-11-13T22:50:24.365Z,7.03
2018-11-13T22:52:53.708Z,7.70
2018-11-13T22:55:22.757Z,7.77
2018-11-13T22:57:53.304Z,6.67
2018-11-13T23:00:23.172Z,7.43
2018-11-13T23:02:53.412Z,5.87
2018-11-13T23:05:22.426Z,6.20
2018-11-13T23:07:51.412Z,6.70
2018-11-13T23:10:20.523Z,7.13
2018-11-13T23:12:49.498Z,5.87
2018-11-13T23:15:19.883Z,6.00
2018-11-13T23:17:49.006Z,5.40
2018-11-13T23:20:19.267Z,4.80
2018-11-13T23:22:48.220Z,5.07
2018-11-13T23:25:18.387Z,5.57
2018-11-13T23:27:48.265Z,5.70
2018-11-13T23:30:22.267Z,5.70
2018-11-13T23:32:51.345Z,5.50
2018-11-13T23:35:20.510Z,5.87
2018-11-13T23:37:50.705Z,5.00
2018-11-13T23:40:21.125Z,5.57
2018-11-13T23:42:50.567Z,4.77
2018-11-13T23:45:20.549Z,5.73
2018-11-13T23:47:49.974Z,5.40
2018-11-13T23:50:19.051Z,5.47
2018-11-13T23:52:49.134Z,4.70
2018-11-13T23:55:18.487Z,5.53
2018-11-13T23:57:48.040Z,4.80
